Time;durP1;ratioP1;P1;durP2;ratioP2;P2;SDS_P1;SDS_P2;PMS_P1;PMS_P2;Temp;Humidity;BMP_temperature;BMP_pressure;BME280_temperature;BME280_humidity;BME280_pressure;Samples;Min_cycle;Max_cycle;Signal;HPM_P1;HPM_P2
2020/12/04 00:00:32;;;;;;;3.53;3.20;;;21.40;53.90;;;;;;5053502;28;20202;-67
2020/12/04 00:02:58;;;;;;;4.97;3.63;;;21.30;53.90;;;;;;5053496;28;20246;-68
2020/12/04 00:05:23;;;;;;;3.47;3.17;;;21.40;53.90;;;;;;5035331;28;20210;-68
2020/12/04 00:07:49;;;;;;;2.80;2.60;;;21.40;53.90;;;;;;5053620;28;20258;-68
2020/12/04 00:10:14;;;;;;;3.40;3.10;;;21.40;53.90;;;;;;5053278;28;20244;-68
2020/12/04 00:12:40;;;;;;;3.23;2.93;;;21.40;53.80;;;;;;5053341;28;20175;-68
2020/12/04 00:15:07;;;;;;;4.73;3.33;;;21.40;53.80;;;;;;5053214;28;20179;-68
2020/12/04 00:17:33;;;;;;;3.80;3.20;;;21.40;53.70;;;;;;5053158;28;20226;-67
2020/12/04 00:19:59;;;;;;;3.37;3.07;;;21.50;53.80;;;;;;5053126;28;20457;-67
2020/12/04 00:22:24;;;;;;;6.10;4.03;;;21.50;53.70;;;;;;5053177;28;20642;-68
2020/12/04 00:24:50;;;;;;;4.23;3.27;;;21.50;53.70;;;;;;5053126;28;20182;-67
2020/12/04 00:27:16;;;;;;;6.00;3.43;;;21.50;53.70;;;;;;5035179;28;20704;-68
2020/12/04 00:29:42;;;;;;;3.43;3.13;;;21.50;53.60;;;;;;5052966;28;20218;-67
2020/12/04 00:32:07;;;;;;;4.13;3.53;;;21.50;53.70;;;;;;5053283;28;20750;-68
2020/12/04 00:34:33;;;;;;;3.63;2.97;;;21.50;53.60;;;;;;5052660;28;20175;-67
2020/12/04 00:36:58;;;;;;;4.00;3.60;;;21.50;53.60;;;;;;5053075;28;20566;-68
2020/12/04 00:39:24;;;;;;;4.00;2.73;;;21.50;53.60;;;;;;5053076;28;20194;-67
2020/12/04 00:41:50;;;;;;;3.10;2.80;;;21.50;53.50;;;;;;5052907;28;20620;-68
2020/12/04 00:44:15;;;;;;;4.40;3.40;;;21.50;53.50;;;;;;5053176;28;20171;-68
2020/12/04 00:46:41;;;;;;;3.27;2.90;;;21.50;53.60;;;;;;5052705;28;20546;-68
2020/12/04 00:49:07;;;;;;;4.10;3.70;;;21.50;53.50;;;;;;5052705;28;20198;-67
2020/12/04 00:51:33;;;;;;;4.67;3.40;;;21.50;53.50;;;;;;5052842;28;20187;-68
2020/12/04 00:53:58;;;;;;;2.63;2.43;;;21.50;53.60;;;;;;5052795;28;20707;-67
2020/12/04 00:56:33;;;;;;;4.10;3.43;;;21.50;53.60;;;;;;5052985;28;20258;-67
2020/12/04 00:59:00;;;;;;;3.50;3.20;;;21.50;53.60;;;;;;5052898;28;20198;-67
2020/12/04 01:01:26;;;;;;;3.40;3.10;;;21.50;53.70;;;;;;5052772;28;20402;-68
2020/12/04 01:03:52;;;;;;;3.40;3.07;;;21.50;53.70;;;;;;5052593;28;20413;-68
2020/12/04 01:06:17;;;;;;;3.13;2.83;;;21.40;53.70;;;;;;5052653;28;20320;-68
2020/12/04 01:08:43;;;;;;;3.97;3.57;;;21.40;53.60;;;;;;5052876;28;20437;-67
2020/12/04 01:11:10;;;;;;;3.53;3.17;;;21.40;53.70;;;;;;5052319;28;20185;-68
2020/12/04 01:13:35;;;;;;;4.13;3.73;;;21.40;53.70;;;;;;5052699;28;20179;-68
2020/12/04 01:16:02;;;;;;;3.13;2.83;;;21.40;53.70;;;;;;5052866;28;20420;-68
2020/12/04 01:18:28;;;;;;;2.90;2.70;;;21.40;53.70;;;;;;5052515;28;20199;-67
2020/12/04 01:20:54;;;;;;;4.27;3.40;;;21.40;53.70;;;;;;5052494;28;20441;-68
2020/12/04 01:23:19;;;;;;;2.87;2.67;;;21.40;53.80;;;;;;5052749;28;21006;-67
2020/12/04 01:25:45;;;;;;;3.50;2.97;;;21.40;53.80;;;;;;5052778;28;20570;-68
2020/12/04 01:28:11;;;;;;;4.40;3.20;;;21.30;53.70;;;;;;5052501;28;20211;-67
2020/12/04 01:30:36;;;;;;;3.87;3.50;;;21.30;53.70;;;;;;5034459;28;20219;-67
2020/12/04 01:33:02;;;;;;;3.40;3.03;;;21.30;53.80;;;;;;5052419;28;20179;-68
2020/12/04 01:35:27;;;;;;;3.10;2.80;;;21.30;53.80;;;;;;5052607;28;20206;-68
2020/12/04 01:37:53;;;;;;;3.23;2.93;;;21.30;53.80;;;;;;5052566;28;20592;-68
2020/12/04 01:40:20;;;;;;;3.10;2.90;;;21.30;53.80;;;;;;5052278;28;20191;-67
2020/12/04 01:42:45;;;;;;;3.50;3.13;;;21.30;53.80;;;;;;5052529;28;20167;-68
2020/12/04 01:45:11;;;;;;;3.13;2.83;;;21.30;53.80;;;;;;5052281;28;20772;-68
2020/12/04 01:47:37;;;;;;;2.87;2.67;;;21.30;53.80;;;;;;5054915;28;20226;-68
2020/12/04 01:50:03;;;;;;;3.53;3.10;;;21.30;53.90;;;;;;5055942;28;20190;-68
2020/12/04 01:52:28;;;;;;;3.60;3.10;;;21.30;53.80;;;;;;5055965;28;20175;-68
2020/12/04 01:54:54;;;;;;;3.30;3.00;;;21.30;53.90;;;;;;5055914;28;20832;-68
2020/12/04 01:57:24;;;;;;;3.70;3.00;;;21.30;53.90;;;;;;5055918;28;20213;-68
2020/12/04 01:59:49;;;;;;;3.60;3.30;;;21.30;53.90;;;;;;5055829;28;20195;-67
2020/12/04 02:02:22;;;;;;;2.80;2.60;;;21.30;53.90;;;;;;5055764;28;20940;-67
2020/12/04 02:04:49;;;;;;;3.27;2.90;;;21.30;53.90;;;;;;5055732;28;20545;-67
2020/12/04 02:07:19;;;;;;;2.90;2.37;;;21.30;53.90;;;;;;5055867;28;20508;-67
2020/12/04 02:09:50;;;;;;;2.73;2.53;;;21.30;53.90;;;;;;5055901;28;20461;-67
2020/12/04 02:12:18;;;;;;;2.63;2.43;;;21.30;53.90;;;;;;5055809;28;20421;-68
2020/12/04 02:14:48;;;;;;;3.60;3.30;;;21.30;53.90;;;;;;5055755;28;20851;-68
2020/12/04 02:17:14;;;;;;;2.50;2.30;;;21.30;53.80;;;;;;5055690;28;20449;-68
2020/12/04 02:19:42;;;;;;;3.90;2.63;;;21.30;53.80;;;;;;5055490;28;20433;-68
2020/12/04 02:22:13;;;;;;;2.90;2.60;;;21.30;53.70;;;;;;5055671;28;20414;-67
2020/12/04 02:24:40;;;;;;;3.53;2.80;;;21.40;53.70;;;;;;5055326;28;20929;-67
2020/12/04 02:27:13;;;;;;;2.90;2.70;;;21.40;53.70;;;;;;5055500;28;20418;-68
2020/12/04 02:29:39;;;;;;;2.83;2.60;;;21.40;53.70;;;;;;5056609;28;20468;-68
2020/12/04 02:32:14;;;;;;;3.00;2.70;;;21.40;53.60;;;;;;5055317;28;20432;-68
2020/12/04 02:34:41;;;;;;;3.10;2.60;;;21.40;53.60;;;;;;5055138;28;20476;-68
2020/12/04 02:37:07;;;;;;;2.43;2.23;;;21.40;53.60;;;;;;5055200;28;20827;-67
2020/12/04 02:39:34;;;;;;;2.50;2.30;;;21.40;53.60;;;;;;5054890;28;20433;-67
2020/12/04 02:42:00;;;;;;;2.80;2.50;;;21.40;53.60;;;;;;5054979;28;20908;-68
2020/12/04 02:44:26;;;;;;;3.93;2.83;;;21.40;53.50;;;;;;5055093;28;20445;-67
2020/12/04 02:46:52;;;;;;;3.00;2.70;;;21.40;53.50;;;;;;5055132;28;20449;-67
2020/12/04 02:49:20;;;;;;;3.03;2.53;;;21.40;53.50;;;;;;5054798;28;20322;-68
2020/12/04 02:51:50;;;;;;;3.23;2.67;;;21.50;53.60;;;;;;5054772;28;20405;-67
2020/12/04 02:54:17;;;;;;;2.70;2.50;;;21.40;53.50;;;;;;5054053;28;20421;-68
2020/12/04 02:56:43;;;;;;;3.27;2.97;;;21.50;53.50;;;;;;5054626;28;20544;-68
2020/12/04 02:59:09;;;;;;;2.43;2.23;;;21.40;53.50;;;;;;5054121;28;20429;-67
2020/12/04 03:01:35;;;;;;;2.70;2.50;;;21.40;53.50;;;;;;5054887;28;20413;-68
2020/12/04 03:04:01;;;;;;;2.63;2.43;;;21.40;53.50;;;;;;5054796;28;20179;-67
2020/12/04 03:06:26;;;;;;;2.37;2.17;;;21.40;53.50;;;;;;5036656;28;21016;-68
2020/12/04 03:08:52;;;;;;;2.70;2.50;;;21.40;53.50;;;;;;5054687;28;20195;-67
2020/12/04 03:11:22;;;;;;;2.80;2.53;;;21.40;53.50;;;;;;5054672;28;20178;-69
2020/12/04 03:13:48;;;;;;;3.00;2.70;;;21.40;53.50;;;;;;5054353;28;20183;-68
2020/12/04 03:16:14;;;;;;;2.33;2.10;;;21.40;53.40;;;;;;5054218;28;20412;-67
2020/12/04 03:18:40;;;;;;;3.20;2.60;;;21.50;53.50;;;;;;5054405;28;20415;-67
2020/12/04 03:21:06;;;;;;;3.13;2.53;;;21.50;53.50;;;;;;5054712;28;20759;-68
2020/12/04 03:23:32;;;;;;;3.47;2.60;;;21.50;53.50;;;;;;5054506;28;20630;-68
2020/12/04 03:25:58;;;;;;;2.60;2.40;;;21.50;53.50;;;;;;5054242;28;20409;-68
2020/12/04 03:28:23;;;;;;;2.10;1.90;;;21.50;53.50;;;;;;5054064;28;20178;-67
2020/12/04 03:30:49;;;;;;;2.43;2.10;;;21.50;53.50;;;;;;5053941;28;20218;-67
2020/12/04 03:33:14;;;;;;;3.17;2.97;;;21.50;53.50;;;;;;5054007;28;20175;-68
2020/12/04 03:35:40;;;;;;;2.90;2.63;;;21.50;53.50;;;;;;5036116;28;20175;-67
2020/12/04 03:38:05;;;;;;;2.87;2.57;;;21.50;53.50;;;;;;5053919;28;20222;-68
2020/12/04 03:40:31;;;;;;;2.60;2.40;;;21.50;53.40;;;;;;5054083;28;20281;-67
2020/12/04 03:42:57;;;;;;;3.00;2.70;;;21.50;53.50;;;;;;5054121;28;20167;-67
2020/12/04 03:45:22;;;;;;;2.40;2.20;;;21.50;53.40;;;;;;5053828;28;20175;-68
2020/12/04 03:47:48;;;;;;;2.57;2.17;;;21.50;53.40;;;;;;5053790;28;20620;-68
2020/12/04 03:50:13;;;;;;;3.33;2.90;;;21.50;53.40;;;;;;5053670;28;20273;-68
2020/12/04 03:52:39;;;;;;;3.40;2.60;;;21.50;53.50;;;;;;5053980;28;20630;-68
2020/12/04 03:55:06;;;;;;;2.50;2.20;;;21.50;53.50;;;;;;5053908;28;20183;-68
2020/12/04 03:57:31;;;;;;;2.70;2.50;;;21.40;53.40;;;;;;5053733;28;20207;-68
2020/12/04 03:59:57;;;;;;;2.57;2.37;;;21.40;53.50;;;;;;5053463;28;20994;-67
2020/12/04 04:02:23;;;;;;;2.30;2.03;;;21.40;53.50;;;;;;5053570;28;20179;-67
2020/12/04 04:04:48;;;;;;;3.90;2.97;;;21.40;53.50;;;;;;5053586;28;20167;-67
2020/12/04 04:07:14;;;;;;;2.63;2.43;;;21.40;53.50;;;;;;5053663;28;20178;-67
2020/12/04 04:09:39;;;;;;;3.00;2.70;;;21.40;53.50;;;;;;5053238;28;20195;-67
2020/12/04 04:12:05;;;;;;;2.30;1.97;;;21.40;53.50;;;;;;5053870;28;20682;-67
2020/12/04 04:14:31;;;;;;;2.77;2.57;;;21.40;53.40;;;;;;5053262;28;20179;-68
2020/12/04 04:16:56;;;;;;;2.57;2.37;;;21.40;53.40;;;;;;5053712;28;20230;-68
2020/12/04 04:19:22;;;;;;;4.00;2.30;;;21.40;53.40;;;;;;5053268;28;20818;-68
2020/12/04 04:21:48;;;;;;;2.63;2.43;;;21.40;53.40;;;;;;5053287;28;20175;-68
2020/12/04 04:24:13;;;;;;;2.40;2.20;;;21.40;53.40;;;;;;5053143;28;20232;-67
2020/12/04 04:26:39;;;;;;;3.20;3.00;;;21.40;53.40;;;;;;5053377;28;20179;-67
2020/12/04 04:29:04;;;;;;;2.70;2.10;;;21.40;53.40;;;;;;5052911;28;20696;-67
2020/12/04 04:31:30;;;;;;;2.33;2.13;;;21.40;53.40;;;;;;5053081;28;20186;-67
2020/12/04 04:33:55;;;;;;;2.90;2.60;;;21.40;53.40;;;;;;5053084;28;20641;-68
2020/12/04 04:36:21;;;;;;;2.80;2.57;;;21.40;53.40;;;;;;5052949;28;20309;-68
2020/12/04 04:38:47;;;;;;;2.30;2.10;;;21.40;53.40;;;;;;5053330;28;20174;-67
2020/12/04 04:41:14;;;;;;;2.53;2.33;;;21.40;53.40;;;;;;5052927;28;20187;-68
2020/12/04 04:43:40;;;;;;;2.10;1.90;;;21.50;53.50;;;;;;5053160;28;20261;-67
2020/12/04 04:46:24;;;;;;;2.50;2.30;;;21.40;53.40;;;;;;5052892;28;20939;-67
2020/12/04 04:48:54;;;;;;;2.67;2.23;;;21.40;53.40;;;;;;5052917;28;20183;-68
2020/12/04 04:51:22;;;;;;;2.13;1.93;;;21.40;53.40;;;;;;5052812;28;20410;-67
2020/12/04 04:53:55;;;;;;;2.37;2.17;;;21.30;54.00;;;;;;5053024;28;20459;-67
2020/12/04 04:56:21;;;;;;;2.03;1.83;;;21.30;53.50;;;;;;5052991;28;20911;-68
2020/12/04 04:58:47;;;;;;;2.40;2.17;;;21.30;53.60;;;;;;5052426;28;20418;-67
2020/12/04 05:01:12;;;;;;;3.40;2.70;;;21.30;53.60;;;;;;5034864;28;20409;-67
2020/12/04 05:03:38;;;;;;;2.97;2.10;;;21.30;53.60;;;;;;5053011;28;20623;-68
2020/12/04 05:06:03;;;;;;;2.50;2.30;;;21.30;53.70;;;;;;5034885;28;20179;-68
2020/12/04 05:08:29;;;;;;;2.40;2.20;;;21.20;53.60;;;;;;5052553;28;20178;-67
2020/12/04 05:11:08;;;;;;;2.60;2.10;;;21.20;53.70;;;;;;5052956;28;20171;-67
2020/12/04 05:13:34;;;;;;;2.60;2.40;;;21.20;53.70;;;;;;5052651;28;20163;-67
2020/12/04 05:15:59;;;;;;;2.60;2.40;;;21.20;53.70;;;;;;5052581;28;20402;-68
2020/12/04 05:18:25;;;;;;;2.37;2.10;;;21.20;53.80;;;;;;5052511;28;20289;-68
2020/12/04 05:20:50;;;;;;;2.53;2.13;;;21.10;53.70;;;;;;5052481;28;20257;-68
2020/12/04 05:23:17;;;;;;;2.43;2.23;;;21.10;53.70;;;;;;5056485;28;20170;-66
2020/12/04 05:25:47;;;;;;;2.40;2.20;;;21.10;53.70;;;;;;5056672;28;20190;-67
2020/12/04 05:28:16;;;;;;;2.87;2.50;;;21.10;53.80;;;;;;5056614;28;22360;-67
2020/12/04 05:31:07;;;;;;;2.27;2.00;;;21.10;53.80;;;;;;5038152;28;20460;-67
2020/12/04 05:33:33;;;;;;;2.37;2.17;;;21.10;53.80;;;;;;5028875;28;20491;-68
2020/12/04 05:35:59;;;;;;;2.80;2.30;;;21.10;53.80;;;;;;5056553;28;20420;-68
2020/12/04 05:38:25;;;;;;;2.40;2.00;;;21.10;53.80;;;;;;5056164;28;20453;-67
2020/12/04 05:41:10;;;;;;;1.90;1.80;;;21.10;53.90;;;;;;5056120;28;20198;-68
2020/12/04 05:43:40;;;;;;;2.77;1.93;;;21.10;53.80;;;;;;5055972;28;20225;-68
2020/12/04 05:46:25;;;;;;;2.30;2.10;;;21.10;53.80;;;;;;5056057;28;20405;-68
2020/12/04 05:48:58;;;;;;;2.50;2.30;;;21.20;53.90;;;;;;5055929;28;20520;-69
2020/12/04 05:51:26;;;;;;;2.40;2.03;;;21.10;53.80;;;;;;5056277;28;20416;-68
2020/12/04 05:53:53;;;;;;;2.17;1.83;;;21.10;53.80;;;;;;5056178;28;20417;-68
2020/12/04 05:56:19;;;;;;;2.70;2.50;;;21.10;53.80;;;;;;5055767;28;20489;-68
2020/12/04 05:58:51;;;;;;;2.03;1.83;;;21.10;53.80;;;;;;5056519;28;20413;-68
2020/12/04 06:01:18;;;;;;;2.30;2.10;;;21.20;53.80;;;;;;5056809;28;20884;-68
2020/12/04 06:03:52;;;;;;;2.87;2.40;;;21.20;53.80;;;;;;5055759;28;20420;-68
2020/12/04 06:06:24;;;;;;;2.80;2.20;;;21.20;53.80;;;;;;5056035;28;20768;-70
2020/12/04 06:08:55;;;;;;;2.47;2.27;;;21.20;53.80;;;;;;5055828;28;20436;-68
2020/12/04 06:11:22;;;;;;;2.97;2.33;;;21.20;53.80;;;;;;5055968;28;20760;-68
2020/12/04 06:13:49;;;;;;;2.70;2.50;;;21.20;53.80;;;;;;5055760;28;20774;-67
2020/12/04 06:16:16;;;;;;;2.70;2.50;;;21.10;53.70;;;;;;5055501;28;20779;-68
2020/12/04 06:18:42;;;;;;;2.93;2.40;;;21.10;53.70;;;;;;5055662;28;20418;-67
2020/12/04 06:21:08;;;;;;;2.70;2.50;;;21.10;53.80;;;;;;5061198;23;20500;-67
2020/12/04 06:23:34;;;;;;;2.87;2.40;;;21.10;53.80;;;;;;5062625;23;20405;-68
2020/12/04 06:26:05;;;;;;;3.07;2.47;;;21.10;53.80;;;;;;5075632;28;20385;-68
2020/12/04 06:28:37;;;;;;;2.93;2.73;;;21.10;53.80;;;;;;5075542;28;20177;-67
2020/12/04 06:31:09;;;;;;;2.80;2.50;;;21.10;53.80;;;;;;5075223;28;20408;-68
2020/12/04 06:33:49;;;;;;;2.20;2.00;;;21.10;53.90;;;;;;5074273;28;20385;-68
2020/12/04 06:36:30;;;;;;;3.30;2.37;;;21.10;53.90;;;;;;5075014;28;20497;-68
2020/12/04 06:38:56;;;;;;;2.70;2.50;;;21.10;53.90;;;;;;5074958;28;20438;-67
2020/12/04 06:41:35;;;;;;;2.60;2.40;;;21.10;53.90;;;;;;5075041;28;20405;-68
2020/12/04 06:44:18;;;;;;;3.37;2.87;;;21.00;53.80;;;;;;5073838;28;20479;-68
2020/12/04 06:46:46;;;;;;;3.07;2.60;;;21.10;53.90;;;;;;5074976;28;20415;-68
2020/12/04 06:51:59;;;;;;;3.97;3.00;;;21.00;53.90;;;;;;5074914;28;20404;-67
2020/12/04 06:54:26;;;;;;;3.10;2.80;;;21.00;53.90;;;;;;5075065;28;20440;-68
2020/12/04 06:56:53;;;;;;;3.20;2.20;;;21.00;53.90;;;;;;5074743;28;20834;-66
2020/12/04 06:59:39;;;;;;;4.00;2.90;;;21.00;53.80;;;;;;5074640;28;20432;-68
2020/12/04 07:02:06;;;;;;;3.10;2.80;;;21.10;53.80;;;;;;5074824;28;20393;-69
2020/12/04 07:04:33;;;;;;;3.13;2.83;;;21.10;53.70;;;;;;5074972;28;20514;-68
2020/12/04 07:07:14;;;;;;;5.23;3.03;;;21.20;53.70;;;;;;5057163;28;20408;-68
2020/12/04 07:09:42;;;;;;;4.10;3.07;;;21.20;53.70;;;;;;5074803;28;20439;-68
2020/12/04 07:12:13;;;;;;;3.87;3.10;;;21.20;53.60;;;;;;5075131;28;20420;-69
2020/12/04 07:14:40;;;;;;;4.27;3.30;;;21.30;53.60;;;;;;5074537;28;20804;-68
2020/12/04 07:17:06;;;;;;;4.80;3.10;;;21.30;53.50;;;;;;5074149;28;20867;-68
2020/12/04 07:19:32;;;;;;;3.90;3.40;;;21.30;53.50;;;;;;5074258;28;20456;-68
2020/12/04 07:21:57;;;;;;;4.07;3.20;;;21.30;53.50;;;;;;5072982;28;20667;-68
2020/12/04 07:24:23;;;;;;;5.13;3.60;;;21.30;53.50;;;;;;5074100;28;20179;-68
2020/12/04 07:26:56;;;;;;;4.67;2.80;;;21.30;53.50;;;;;;5074482;28;20564;-68
2020/12/04 07:29:22;;;;;;;5.70;3.80;;;21.40;53.50;;;;;;5074050;28;20198;-68
2020/12/04 07:31:51;;;;;;;4.47;3.27;;;21.40;53.50;;;;;;5072806;28;20413;-68
2020/12/04 07:34:25;;;;;;;4.57;3.40;;;21.40;53.40;;;;;;5074286;28;20180;-68
2020/12/04 07:36:56;;;;;;;6.97;4.53;;;21.40;53.40;;;;;;5074221;28;20432;-68
2020/12/04 07:39:30;;;;;;;3.53;3.13;;;21.40;53.30;;;;;;5074013;28;20425;-67
2020/12/04 07:41:56;;;;;;;6.53;4.00;;;21.40;53.30;;;;;;5074208;28;20467;-68
2020/12/04 07:44:36;;;;;;;5.73;3.77;;;21.40;53.30;;;;;;5073559;28;20474;-68
2020/12/04 07:47:06;;;;;;;8.10;4.93;;;21.40;53.30;;;;;;5073840;28;20392;-68
2020/12/04 07:49:33;;;;;;;6.67;4.30;;;21.40;53.30;;;;;;5073622;28;20927;-68
2020/12/04 07:52:10;;;;;;;5.20;3.87;;;21.40;53.30;;;;;;5073632;28;20495;-68
2020/12/04 07:54:36;;;;;;;4.80;4.03;;;21.50;53.30;;;;;;5074144;28;20412;-68
2020/12/04 07:57:02;;;;;;;5.13;3.73;;;21.40;53.20;;;;;;5073542;28;20958;-68
2020/12/04 07:59:30;;;;;;;4.70;4.20;;;21.40;53.20;;;;;;5071920;28;20447;-68
2020/12/04 08:01:56;;;;;;;4.23;3.43;;;21.40;53.20;;;;;;5073654;28;20930;-66
2020/12/04 08:04:22;;;;;;;6.47;4.40;;;21.40;53.10;;;;;;5071958;28;20438;-68
2020/12/04 08:06:48;;;;;;;5.73;4.47;;;21.40;53.10;;;;;;5073690;28;20461;-68
2020/12/04 08:09:18;;;;;;;6.60;4.40;;;21.40;53.10;;;;;;5074024;28;20416;-68
2020/12/04 08:12:04;;;;;;;5.50;4.67;;;21.40;53.10;;;;;;5073408;28;20408;-67
2020/12/04 08:14:29;;;;;;;5.10;4.17;;;21.50;53.10;;;;;;5073670;28;20951;-68
2020/12/04 08:16:59;;;;;;;5.07;3.80;;;21.40;53.10;;;;;;5073480;28;20538;-68
2020/12/04 08:19:32;;;;;;;4.90;4.10;;;21.40;53.10;;;;;;5073192;28;20218;-68
2020/12/04 08:22:07;;;;;;;4.53;4.03;;;21.40;53.10;;;;;;5073473;28;20384;-68
2020/12/04 08:24:36;;;;;;;6.57;4.87;;;21.40;53.10;;;;;;5073224;28;20556;-68
2020/12/04 08:27:06;;;;;;;4.33;3.80;;;21.40;53.10;;;;;;5073419;28;20413;-67
2020/12/04 08:29:33;;;;;;;5.00;4.47;;;21.40;53.10;;;;;;5073274;28;21036;-68
2020/12/04 08:32:08;;;;;;;5.40;3.67;;;21.40;53.10;;;;;;5073148;28;20436;-68
2020/12/04 08:34:34;;;;;;;5.40;3.20;;;21.40;53.10;;;;;;5073121;28;20504;-68
2020/12/04 08:37:03;;;;;;;4.00;3.60;;;21.40;53.10;;;;;;5071494;28;20455;-68
2020/12/04 08:39:38;;;;;;;4.37;3.30;;;21.40;53.70;;;;;;5073036;28;20432;-68
2020/12/04 08:42:39;;;;;;;4.40;3.90;;;21.40;53.10;;;;;;5073267;28;20470;-68
2020/12/04 08:45:08;;;;;;;3.93;3.20;;;21.40;53.10;;;;;;5011346;28;20419;-68
2020/12/04 08:47:40;;;;;;;5.60;4.00;;;21.40;53.20;;;;;;5061924;28;20777;-68
2020/12/04 08:50:07;;;;;;;6.80;4.03;;;21.40;53.10;;;;;;5073079;28;20429;-68
2020/12/04 08:52:40;;;;;;;4.47;3.80;;;21.40;53.10;;;;;;5073183;28;20462;-68
2020/12/04 08:55:18;;;;;;;4.40;3.57;;;21.40;53.10;;;;;;5072899;28;20488;-68
2020/12/04 08:57:44;;;;;;;4.20;3.50;;;21.40;53.10;;;;;;5076276;28;20462;-67
2020/12/04 09:00:13;;;;;;;5.50;4.40;;;21.40;53.10;;;;;;5075974;28;20927;-68
2020/12/04 09:02:39;;;;;;;4.77;4.27;;;21.40;53.10;;;;;;5077252;28;20876;-68
2020/12/04 09:05:07;;;;;;;4.63;3.60;;;21.40;53.00;;;;;;5076923;28;20403;-67
2020/12/04 09:07:33;;;;;;;8.43;3.60;;;21.40;53.10;;;;;;5077156;28;20504;-67
2020/12/04 09:09:59;;;;;;;5.50;3.70;;;21.40;53.00;;;;;;5077003;28;20482;-68
2020/12/04 09:12:25;;;;;;;5.23;3.10;;;21.40;53.00;;;;;;5076740;28;20474;-68
2020/12/04 09:14:51;;;;;;;4.07;3.40;;;21.40;53.00;;;;;;5076985;28;20185;-68
2020/12/04 09:17:17;;;;;;;5.40;3.33;;;21.40;53.00;;;;;;5076590;28;20452;-68
2020/12/04 09:19:44;;;;;;;4.03;3.13;;;21.40;53.00;;;;;;5076600;28;20209;-66
2020/12/04 09:22:15;;;;;;;4.50;3.70;;;21.40;53.00;;;;;;5077075;28;20895;-68
2020/12/04 09:24:40;;;;;;;3.67;3.23;;;21.40;53.10;;;;;;5076574;28;20467;-68
2020/12/04 09:27:06;;;;;;;5.50;3.63;;;21.40;53.10;;;;;;5075133;28;20447;-68
2020/12/04 09:29:32;;;;;;;4.83;3.40;;;21.40;53.10;;;;;;5076355;28;20722;-68
2020/12/04 09:32:06;;;;;;;4.70;3.37;;;21.40;53.20;;;;;;5076671;28;20257;-67
2020/12/04 09:34:31;;;;;;;4.27;3.13;;;21.40;53.20;;;;;;5072637;28;20469;-67
2020/12/04 09:37:17;;;;;;;4.13;3.10;;;21.40;53.20;;;;;;5076167;28;20447;-65
2020/12/04 09:39:44;;;;;;;6.00;3.40;;;21.40;53.20;;;;;;5076305;28;20213;-65
2020/12/04 09:42:11;;;;;;;4.43;3.17;;;21.40;53.30;;;;;;5076339;28;20499;-66
2020/12/04 09:44:36;;;;;;;3.40;3.10;;;21.40;53.30;;;;;;5078097;28;20385;-64
2020/12/04 09:47:02;;;;;;;4.80;3.23;;;21.40;53.30;;;;;;5077315;28;20400;-67
2020/12/04 09:49:28;;;;;;;4.00;3.23;;;21.40;53.20;;;;;;5075175;28;20214;-67
2020/12/04 09:51:56;;;;;;;3.83;2.83;;;21.50;53.30;;;;;;5076281;28;20823;-67
2020/12/04 09:54:22;;;;;;;3.70;3.20;;;21.50;53.20;;;;;;5074686;28;20194;-66
2020/12/04 09:56:51;;;;;;;4.40;3.00;;;21.50;53.20;;;;;;5075900;28;20440;-67
2020/12/04 09:59:17;;;;;;;5.00;3.10;;;21.50;53.20;;;;;;5076125;28;20447;-67
2020/12/04 10:01:42;;;;;;;3.83;3.17;;;21.50;53.10;;;;;;5075807;28;20413;-67
2020/12/04 10:04:08;;;;;;;4.23;3.17;;;21.60;53.20;;;;;;5075827;28;20173;-67
2020/12/04 10:06:33;;;;;;;6.00;3.17;;;21.60;53.20;;;;;;5075970;28;20166;-67
2020/12/04 10:08:59;;;;;;;6.50;3.17;;;21.60;53.10;;;;;;5075734;28;20340;-67
2020/12/04 10:11:24;;;;;;;6.83;3.90;;;21.60;53.10;;;;;;5075653;28;20194;-66
2020/12/04 10:13:50;;;;;;;4.63;3.07;;;21.60;53.10;;;;;;5075648;28;20259;-67
2020/12/04 10:16:16;;;;;;;4.33;3.90;;;21.60;53.10;;;;;;5075977;28;20166;-67
2020/12/04 10:18:41;;;;;;;6.47;3.37;;;21.60;53.10;;;;;;5074248;28;20695;-66
2020/12/04 10:21:07;;;;;;;5.20;4.20;;;21.60;53.10;;;;;;5075732;28;20170;-67
2020/12/04 10:23:32;;;;;;;5.63;3.50;;;21.70;53.10;;;;;;5075266;28;20599;-67
2020/12/04 10:25:59;;;;;;;6.27;3.57;;;21.70;53.10;;;;;;5075752;28;20155;-68
2020/12/04 10:28:28;;;;;;;8.57;4.53;;;21.70;53.10;;;;;;5075719;28;20174;-65
2020/12/04 10:30:54;;;;;;;10.00;4.10;;;21.70;53.10;;;;;;5075294;28;20431;-68
2020/12/04 10:33:20;;;;;;;6.67;3.57;;;21.70;53.10;;;;;;5075365;28;20783;-67
2020/12/04 10:35:45;;;;;;;8.83;4.20;;;21.70;53.60;;;;;;5075452;28;20407;-67
2020/12/04 10:38:11;;;;;;;9.13;4.23;;;21.70;53.10;;;;;;5075428;28;20206;-67
2020/12/04 10:40:37;;;;;;;8.33;4.07;;;21.80;53.10;;;;;;5075040;28;20231;-68
2020/12/04 10:43:02;;;;;;;5.07;3.57;;;21.80;53.10;;;;;;5074725;28;20308;-68
2020/12/04 10:45:28;;;;;;;8.03;4.00;;;21.80;53.10;;;;;;5075269;28;20586;-67
2020/12/04 10:47:53;;;;;;;6.17;3.60;;;21.80;53.10;;;;;;5075066;28;20185;-68
2020/12/04 10:50:19;;;;;;;8.83;3.73;;;21.80;53.10;;;;;;5057021;28;20222;-68
2020/12/04 10:52:44;;;;;;;6.83;4.60;;;21.80;53.10;;;;;;5074936;28;20546;-68
2020/12/04 10:55:10;;;;;;;7.70;4.00;;;21.80;53.00;;;;;;5074884;28;20158;-67
2020/12/04 10:57:35;;;;;;;8.60;4.00;;;21.80;53.00;;;;;;5074766;28;20198;-68
2020/12/04 11:00:04;;;;;;;8.30;3.80;;;21.90;53.10;;;;;;5074640;28;20527;-68
2020/12/04 11:02:31;;;;;;;9.10;4.00;;;21.90;53.10;;;;;;5074676;28;20221;-68
2020/12/04 11:07:41;;;;;;;6.83;3.53;;;21.80;53.00;;;;;;5074795;28;20392;-68
2020/12/04 11:10:06;;;;;;;10.50;3.87;;;21.90;53.10;;;;;;5074496;28;20841;-68
2020/12/04 11:12:32;;;;;;;6.13;3.10;;;21.90;53.10;;;;;;5074497;28;20167;-68
2020/12/04 11:14:58;;;;;;;9.30;3.73;;;21.90;53.10;;;;;;5077187;28;20201;-68
2020/12/04 11:17:24;;;;;;;8.33;3.40;;;21.90;53.10;;;;;;5076346;28;20198;-67
2020/12/04 11:19:51;;;;;;;6.53;3.73;;;21.90;53.00;;;;;;5074222;28;20542;-68
2020/12/04 11:22:18;;;;;;;7.73;3.70;;;21.90;53.00;;;;;;5075281;28;20497;-68
2020/12/04 11:24:43;;;;;;;7.97;3.93;;;21.90;53.00;;;;;;5074141;28;20452;-68
2020/12/04 11:27:09;;;;;;;5.00;3.40;;;21.90;53.00;;;;;;5074144;28;20847;-68
2020/12/04 11:29:35;;;;;;;9.90;4.43;;;22.00;53.00;;;;;;5074091;28;20202;-70
2020/12/04 11:32:00;;;;;;;8.23;4.03;;;22.00;53.00;;;;;;5074067;28;20592;-68
2020/12/04 11:34:26;;;;;;;9.27;3.93;;;22.00;53.00;;;;;;5074076;28;20178;-68
2020/12/04 11:36:51;;;;;;;5.47;3.20;;;22.00;53.00;;;;;;5074424;28;20723;-68
2020/12/04 11:39:17;;;;;;;8.20;4.30;;;22.00;53.00;;;;;;5073871;28;20197;-67
2020/12/04 11:41:43;;;;;;;4.37;3.37;;;22.00;53.00;;;;;;5073871;28;20166;-68
2020/12/04 11:44:08;;;;;;;8.50;3.53;;;22.10;53.10;;;;;;5073909;28;20146;-68
2020/12/04 11:46:34;;;;;;;7.80;4.20;;;22.00;53.00;;;;;;5073802;28;20171;-68
2020/12/04 11:48:59;;;;;;;6.87;4.20;;;22.10;53.10;;;;;;5070921;28;20578;-68
2020/12/04 11:51:25;;;;;;;8.27;3.73;;;22.10;53.00;;;;;;5073949;28;20292;-68
2020/12/04 11:53:51;;;;;;;12.10;3.53;;;22.10;53.00;;;;;;5073610;28;20173;-68
2020/12/04 11:56:19;;;;;;;6.87;3.70;;;22.10;53.00;;;;;;5073878;28;20163;-68
2020/12/04 11:58:44;;;;;;;9.90;4.17;;;22.10;53.00;;;;;;5073629;28;20178;-67
2020/12/04 12:01:10;;;;;;;6.43;3.00;;;22.10;53.00;;;;;;5073526;28;20400;-68
2020/12/04 12:03:35;;;;;;;4.40;3.47;;;22.20;53.10;;;;;;5073778;28;20645;-68
2020/12/04 12:06:01;;;;;;;7.60;4.23;;;22.10;52.90;;;;;;5072202;28;20166;-68
2020/12/04 12:08:27;;;;;;;8.40;3.90;;;22.10;53.00;;;;;;5073674;28;20197;-67
2020/12/04 12:10:53;;;;;;;4.10;2.80;;;22.10;52.90;;;;;;5073308;28;20611;-67
2020/12/04 12:13:19;;;;;;;6.67;3.40;;;22.20;53.00;;;;;;5072615;28;20405;-67
2020/12/04 12:15:44;;;;;;;5.17;3.53;;;22.20;53.00;;;;;;5073510;28;20265;-66
2020/12/04 12:18:10;;;;;;;7.20;4.20;;;22.20;53.00;;;;;;5074021;28;20206;-67
2020/12/04 12:20:36;;;;;;;4.77;2.87;;;22.20;53.00;;;;;;5072963;28;20193;-68
2020/12/04 12:23:01;;;;;;;5.43;3.40;;;22.20;53.00;;;;;;5073508;28;20171;-67
2020/12/04 12:25:27;;;;;;;7.60;4.20;;;22.20;52.90;;;;;;5072975;28;20209;-67
2020/12/04 12:27:53;;;;;;;5.20;3.27;;;22.10;52.90;;;;;;5073256;28;20182;-66
2020/12/04 12:30:18;;;;;;;5.70;3.00;;;22.20;52.90;;;;;;5072929;28;20286;-67
2020/12/04 12:32:44;;;;;;;5.37;3.50;;;22.10;52.90;;;;;;5072644;28;20300;-67
2020/12/04 12:35:13;;;;;;;6.50;3.90;;;22.10;52.90;;;;;;5073296;28;20198;-67
2020/12/04 12:37:42;;;;;;;7.10;4.47;;;22.20;53.00;;;;;;5073303;28;20558;-68
2020/12/04 12:40:09;;;;;;;7.00;3.70;;;22.10;52.90;;;;;;5073309;28;20931;-67
2020/12/04 12:42:35;;;;;;;6.47;4.60;;;22.10;53.50;;;;;;5072939;28;20413;-67
2020/12/04 12:45:01;;;;;;;7.80;4.70;;;22.20;53.00;;;;;;5072931;28;20484;-67
2020/12/04 12:47:26;;;;;;;6.87;4.30;;;22.20;53.60;;;;;;5072933;28;20194;-67
2020/12/04 12:49:52;;;;;;;9.70;5.40;;;22.10;52.90;;;;;;5072826;28;20232;-67
2020/12/04 12:52:18;;;;;;;9.60;4.60;;;22.10;53.00;;;;;;5072833;28;20175;-67